Aeroporto :
LOGIN :

Iscrizione | Disclaimer

   EN    FR    IT 

 










Sommario :    VFR   VFR Marginale   IFR   IFR Intensivo   IFR Molto Intensivo
Visibilità : 
Base nubi : 
>= 8 km
>= 3000ft
5 / 8 km
1000 / 3000 ft
1500m / 5 km
500 / 1000 ft
800 / 1500m
200 / 500 ft
< 800m
< 200 ft
Simboli :   Temporali  Nebbia  Neve Forte  Precipitazioni Forti  Vento > 20 kt
SIGMETs :   Varie  Temporali  Ghiacco  Turbolenza  Onda orograficha  Ceneri Vulcaniche






- Altitudine del aeroporto : 203 ft
- Codice IATA : XMJ


LFBM - Mont-De-Marsan

ULTIMO METAR :
  • 231100Z AUTO VRB02KT 9999 SCT012 11/08 Q1034 NOSIG

METARs OBSOLETI :
  • 231030Z AUTO VRB02KT 9000 OVC011 10/08 Q1034 BECMG NSC
  • 231000Z AUTO VRB03KT 9000 OVC011 10/08 Q1034 BECMG SCT012
  • 230930Z AUTO VRB02KT 8000 OVC009 09/08 Q1034 BECMG SCT012
  • 230900Z AUTO 16003KT 130V190 8000 OVC009 09/08 Q1034 BECMG SCT012
  • 230830Z AUTO VRB01KT 9000 OVC010 08/08 Q1034 BECMG SCT005

TAF TAF LFBM
Valido dal 23 a 09 ore il 24 a 09 ore UTC


230800Z 2309/2409 VRB02KT 8000 OVC010
BECMG 2310/2312 29005KT SCT012
BECMG 2312/2314 NSC
BECMG 2321/2324 0800 FG VV///



MetMap, La meteo Aeronautica in un colpo d'occhio ! - Copyright ORBIFLY Dicembre 2007 - Disclaimer

ORBIFLY MET'MAP TEAM :

Programmazione e sviluppo : Alexandra Zaïnal
Concezione : Baudouin d'Aumeries
Aiuto per la programmazione : Marc-Olivier Méhu
Supporto tecnico e logistico : Manuel Goepfert
Aiuto per la traduzione : Arnaldo La Scala

Contatto : metmap@orbifly.com




FONTI E CREDITI :

   NOAA